Time;durP1;ratioP1;P1;durP2;ratioP2;P2;SDS_P1;SDS_P2;PMS_P1;PMS_P2;Temp;Humidity;BMP_temperature;BMP_pressure;BME280_temperature;BME280_humidity;BME280_pressure;Samples;Min_cycle;Max_cycle;Signal;HPM_P1;HPM_P2
2022/04/14 00:01:36;;;;;;;35.13;28.83;;;13.70;99.90;;;;;;5073099;28;20238;-62
2022/04/14 00:04:02;;;;;;;36.67;29.67;;;13.70;99.90;;;;;;5073014;28;20202;-64
2022/04/14 00:06:27;;;;;;;39.37;30.53;;;13.80;99.90;;;;;;5073196;28;20173;-62
2022/04/14 00:08:53;;;;;;;37.20;29.60;;;13.70;99.90;;;;;;5073460;28;20238;-63
2022/04/14 00:11:19;;;;;;;36.37;28.03;;;13.50;99.90;;;;;;5073290;28;20176;-63
2022/04/14 00:13:45;;;;;;;36.87;28.30;;;13.50;99.90;;;;;;5073215;28;20164;-62
2022/04/14 00:16:10;;;;;;;34.33;29.27;;;13.40;99.90;;;;;;5072861;28;20168;-62
2022/04/14 00:18:36;;;;;;;34.90;28.13;;;13.50;99.90;;;;;;5072684;28;20211;-63
2022/04/14 00:21:02;;;;;;;37.60;29.37;;;13.50;99.90;;;;;;5073253;28;20526;-62
2022/04/14 00:23:27;;;;;;;37.23;29.80;;;13.50;99.90;;;;;;5073598;28;20521;-63
2022/04/14 00:25:53;;;;;;;39.47;28.07;;;13.50;99.90;;;;;;5072998;28;20251;-62
2022/04/14 00:28:19;;;;;;;39.13;29.50;;;13.60;99.90;;;;;;5072827;28;20168;-62
2022/04/14 00:30:44;;;;;;;38.70;30.70;;;13.60;99.90;;;;;;5072874;28;20168;-62
2022/04/14 00:33:10;;;;;;;38.23;30.10;;;13.70;99.90;;;;;;5072677;28;20169;-62
2022/04/14 00:35:35;;;;;;;40.77;31.23;;;13.70;99.90;;;;;;5073308;28;20640;-63
2022/04/14 00:38:01;;;;;;;40.70;30.90;;;13.80;99.90;;;;;;5072794;28;20176;-63
2022/04/14 00:40:27;;;;;;;39.50;29.90;;;13.80;99.90;;;;;;5072978;28;20256;-62
2022/04/14 00:42:52;;;;;;;35.90;29.87;;;13.70;99.90;;;;;;5073491;28;20219;-62
2022/04/14 00:45:18;;;;;;;39.40;30.03;;;13.60;99.90;;;;;;5076521;28;20176;-62
2022/04/14 00:47:44;;;;;;;39.73;29.57;;;13.60;99.90;;;;;;5076878;28;20226;-62
2022/04/14 00:50:09;;;;;;;36.90;29.80;;;13.60;99.90;;;;;;5076814;28;20222;-62
2022/04/14 00:52:41;;;;;;;38.13;30.13;;;13.60;99.90;;;;;;5076914;28;20176;-63
2022/04/14 00:55:07;;;;;;;37.57;29.97;;;13.70;99.90;;;;;;5076721;28;20181;-62
2022/04/14 00:57:33;;;;;;;37.10;29.77;;;13.70;99.90;;;;;;5076512;28;20319;-63
2022/04/14 00:59:58;;;;;;;37.67;29.07;;;13.80;99.90;;;;;;5076331;28;20209;-63
2022/04/14 01:02:24;;;;;;;39.50;29.97;;;13.80;99.90;;;;;;5076901;28;20172;-62
2022/04/14 01:04:50;;;;;;;37.40;29.63;;;13.80;99.90;;;;;;5076630;28;20169;-62
2022/04/14 01:07:17;;;;;;;37.93;29.50;;;13.70;99.90;;;;;;5076490;28;20257;-62
2022/04/14 01:09:45;;;;;;;38.70;29.90;;;13.70;99.90;;;;;;5076744;28;20190;-62
2022/04/14 01:12:11;;;;;;;37.63;29.07;;;13.70;99.90;;;;;;5076388;28;20206;-63
2022/04/14 01:14:37;;;;;;;38.47;29.50;;;13.70;99.90;;;;;;5076053;28;20221;-62
2022/04/14 01:17:07;;;;;;;40.27;30.30;;;13.70;99.90;;;;;;5076217;28;20172;-62
2022/04/14 01:19:34;;;;;;;37.13;29.07;;;13.80;99.90;;;;;;5076156;28;20274;-62
2022/04/14 01:22:23;;;;;;;36.80;29.77;;;13.80;99.90;;;;;;5076234;28;20176;-62
2022/04/14 01:24:53;;;;;;;38.23;29.00;;;13.80;99.90;;;;;;5076408;28;20260;-63
2022/04/14 01:27:19;;;;;;;37.97;30.27;;;13.80;99.90;;;;;;5075991;28;20169;-63
2022/04/14 01:29:46;;;;;;;38.53;30.30;;;13.70;99.90;;;;;;5075614;28;20179;-63
2022/04/14 01:32:11;;;;;;;37.40;29.50;;;13.80;99.90;;;;;;5076031;28;20619;-63
2022/04/14 01:34:37;;;;;;;34.97;28.80;;;13.80;99.90;;;;;;5076193;28;20200;-63
2022/04/14 01:37:03;;;;;;;38.73;30.17;;;13.70;99.90;;;;;;5076052;28;20529;-63
2022/04/14 01:39:29;;;;;;;41.13;31.93;;;13.70;99.90;;;;;;5075962;28;20561;-63
2022/04/14 01:41:55;;;;;;;40.10;30.50;;;13.60;99.90;;;;;;5075794;28;20171;-62
2022/04/14 01:44:21;;;;;;;36.90;29.97;;;13.60;99.90;;;;;;5075588;28;20179;-63
2022/04/14 01:46:47;;;;;;;38.43;30.40;;;13.70;99.90;;;;;;5075800;28;20252;-63
2022/04/14 01:49:13;;;;;;;35.50;30.23;;;13.70;99.90;;;;;;5075896;28;20662;-63
2022/04/14 01:51:39;;;;;;;39.80;30.77;;;13.70;99.90;;;;;;5075961;28;20546;-62
2022/04/14 01:54:05;;;;;;;39.60;29.57;;;13.70;99.90;;;;;;5075576;28;20642;-62
2022/04/14 01:56:31;;;;;;;37.80;30.67;;;13.70;99.90;;;;;;5075252;28;20228;-63
2022/04/14 01:58:57;;;;;;;38.03;29.53;;;13.70;99.90;;;;;;5075140;28;20235;-63
2022/04/14 02:01:23;;;;;;;43.60;32.07;;;13.60;99.90;;;;;;5075705;28;20169;-63
2022/04/14 02:03:49;;;;;;;40.53;31.13;;;13.60;99.90;;;;;;5075705;28;20181;-63
2022/04/14 02:06:15;;;;;;;38.83;30.37;;;13.60;99.90;;;;;;5075419;28;20175;-64
2022/04/14 02:08:42;;;;;;;46.27;31.67;;;13.60;99.90;;;;;;5075560;28;20191;-63
2022/04/14 02:11:08;;;;;;;40.30;30.93;;;13.50;99.90;;;;;;5075400;28;20192;-62
2022/04/14 02:13:34;;;;;;;39.37;31.43;;;13.50;99.90;;;;;;5074857;28;20179;-63
2022/04/14 02:16:00;;;;;;;42.73;31.67;;;13.40;99.90;;;;;;5075307;28;20640;-62
2022/04/14 02:18:26;;;;;;;45.13;30.73;;;13.30;99.90;;;;;;5075020;28;20299;-63
2022/04/14 02:20:52;;;;;;;42.03;32.37;;;13.40;99.90;;;;;;5075518;28;20192;-62
2022/04/14 02:23:18;;;;;;;41.50;32.33;;;13.40;99.90;;;;;;5075258;28;20204;-62
2022/04/14 02:25:44;;;;;;;41.03;31.03;;;13.40;99.90;;;;;;5075022;28;20179;-63
2022/04/14 02:28:10;;;;;;;42.37;30.57;;;13.30;99.90;;;;;;5074690;28;20177;-63
2022/04/14 02:30:36;;;;;;;38.17;30.60;;;13.20;99.90;;;;;;5075098;28;20188;-63
2022/04/14 02:33:03;;;;;;;44.17;32.77;;;13.20;99.90;;;;;;5075068;28;20176;-63
2022/04/14 02:35:29;;;;;;;39.97;32.00;;;13.20;99.90;;;;;;5074887;28;20196;-63
2022/04/14 02:37:57;;;;;;;43.80;32.20;;;13.20;99.90;;;;;;5074843;28;20199;-63
2022/04/14 02:40:26;;;;;;;44.77;32.30;;;13.30;99.90;;;;;;5074426;28;20204;-63
2022/04/14 02:42:57;;;;;;;42.03;31.43;;;13.30;99.90;;;;;;5074310;28;20192;-63
2022/04/14 02:45:23;;;;;;;42.70;31.70;;;13.20;99.90;;;;;;5074782;28;20640;-62
2022/04/14 02:47:49;;;;;;;42.37;33.10;;;13.20;99.90;;;;;;5074666;28;20173;-63
2022/04/14 02:50:15;;;;;;;45.30;32.37;;;13.10;99.90;;;;;;5074441;28;20179;-62
2022/04/14 02:52:41;;;;;;;44.50;31.27;;;13.00;99.90;;;;;;5074652;28;20525;-62
2022/04/14 02:55:08;;;;;;;39.30;30.77;;;12.90;99.90;;;;;;5074228;28;20229;-63
2022/04/14 02:57:34;;;;;;;41.07;31.70;;;12.90;99.90;;;;;;5073833;28;20699;-62
2022/04/14 03:00:00;;;;;;;39.40;29.97;;;12.90;99.90;;;;;;5074359;28;20200;-63
2022/04/14 03:02:26;;;;;;;42.50;31.53;;;12.90;99.90;;;;;;5074491;28;20172;-64
2022/04/14 03:04:51;;;;;;;41.53;31.17;;;13.00;99.90;;;;;;5074472;28;20168;-63
2022/04/14 03:07:17;;;;;;;44.10;32.20;;;12.90;99.90;;;;;;5073488;28;20180;-62
2022/04/14 03:09:43;;;;;;;44.87;33.30;;;12.90;99.90;;;;;;5074047;28;20168;-63
2022/04/14 03:12:09;;;;;;;49.03;34.03;;;12.90;99.90;;;;;;5073875;28;20176;-63
2022/04/14 03:14:34;;;;;;;45.40;33.60;;;12.80;99.90;;;;;;5074218;28;20173;-62
2022/04/14 03:17:00;;;;;;;47.43;33.10;;;12.70;99.90;;;;;;5073777;28;20183;-62
2022/04/14 03:19:25;;;;;;;46.97;33.27;;;12.70;99.90;;;;;;5073871;28;20560;-62
2022/04/14 03:21:51;;;;;;;48.07;34.27;;;12.70;99.90;;;;;;5073624;28;20528;-62
2022/04/14 03:24:17;;;;;;;44.03;31.97;;;12.60;99.90;;;;;;5073579;28;20237;-62
2022/04/14 03:26:42;;;;;;;47.33;34.53;;;12.40;99.90;;;;;;5073371;28;20620;-62
2022/04/14 03:29:08;;;;;;;45.63;33.47;;;12.30;99.90;;;;;;5073629;28;20260;-62
2022/04/14 03:31:34;;;;;;;43.47;33.03;;;12.30;99.90;;;;;;5073521;28;20665;-62
2022/04/14 03:33:59;;;;;;;45.87;32.70;;;12.30;99.90;;;;;;5073620;28;20176;-62
2022/04/14 03:36:25;;;;;;;49.03;35.33;;;12.30;99.90;;;;;;5073529;28;20574;-63
2022/04/14 03:38:51;;;;;;;51.83;35.83;;;12.40;99.90;;;;;;5073275;28;20323;-62
2022/04/14 03:41:16;;;;;;;50.30;35.57;;;12.40;99.90;;;;;;5072989;28;20536;-63
2022/04/14 03:43:42;;;;;;;48.23;35.30;;;12.30;99.90;;;;;;5073494;28;20275;-62
2022/04/14 03:46:08;;;;;;;54.07;36.83;;;12.30;99.90;;;;;;5073402;28;20164;-63
2022/04/14 03:48:34;;;;;;;50.83;35.73;;;12.30;99.90;;;;;;5073213;28;20326;-63
2022/04/14 03:51:00;;;;;;;50.13;35.47;;;12.20;99.90;;;;;;5073296;28;20259;-63
2022/04/14 03:53:26;;;;;;;54.57;37.33;;;12.20;99.90;;;;;;5073088;28;20525;-62
2022/04/14 03:55:51;;;;;;;48.87;36.00;;;12.20;99.90;;;;;;5072205;28;20229;-62
2022/04/14 03:58:17;;;;;;;54.53;36.80;;;12.10;99.90;;;;;;5072880;28;20196;-62
2022/04/14 04:00:43;;;;;;;50.60;36.90;;;12.10;99.90;;;;;;5073168;28;20176;-63
2022/04/14 04:03:09;;;;;;;48.57;35.47;;;12.10;99.90;;;;;;5073219;28;20168;-63
2022/04/14 04:05:35;;;;;;;49.37;36.07;;;12.10;99.90;;;;;;5073015;28;20204;-63
2022/04/14 04:08:01;;;;;;;54.63;37.90;;;12.10;99.90;;;;;;5072758;28;20168;-63
2022/04/14 04:10:26;;;;;;;55.47;37.90;;;12.00;99.90;;;;;;5072312;28;20177;-63
2022/04/14 04:12:52;;;;;;;53.17;37.17;;;12.10;99.90;;;;;;5072981;28;20169;-64
2022/04/14 04:15:18;;;;;;;57.90;37.63;;;12.10;99.90;;;;;;5073264;28;20212;-63
2022/04/14 04:17:45;;;;;;;53.13;37.43;;;12.00;99.90;;;;;;5072052;28;20160;-64
2022/04/14 04:20:11;;;;;;;57.87;40.37;;;12.00;99.90;;;;;;5072628;28;20212;-64
2022/04/14 04:22:36;;;;;;;58.93;39.20;;;12.00;99.90;;;;;;5072373;28;20291;-63
2022/04/14 04:25:03;;;;;;;57.20;40.00;;;11.90;99.90;;;;;;5072145;28;20176;-64
2022/04/14 04:27:29;;;;;;;59.83;39.47;;;11.90;99.90;;;;;;5073163;28;20177;-64
2022/04/14 04:29:55;;;;;;;56.43;38.33;;;11.90;99.90;;;;;;5072800;28;20173;-62
2022/04/14 04:32:21;;;;;;;53.40;39.33;;;11.80;99.90;;;;;;5072742;28;20531;-63
2022/04/14 04:34:46;;;;;;;52.20;38.13;;;11.70;99.90;;;;;;5072811;28;20654;-62
2022/04/14 04:37:12;;;;;;;56.50;38.10;;;11.60;99.90;;;;;;5072421;28;20185;-62
2022/04/14 04:39:38;;;;;;;58.40;39.77;;;11.50;99.90;;;;;;5072012;28;20770;-63
2022/04/14 04:42:03;;;;;;;60.13;41.63;;;11.60;99.90;;;;;;5072991;28;20712;-62
2022/04/14 04:44:29;;;;;;;66.17;42.23;;;11.60;99.90;;;;;;5073086;28;20640;-64
2022/04/14 04:46:55;;;;;;;67.00;41.90;;;11.70;99.90;;;;;;5072213;28;20229;-63
2022/04/14 04:49:20;;;;;;;65.53;43.10;;;11.60;99.90;;;;;;5072699;28;20176;-62
2022/04/14 04:51:46;;;;;;;73.40;41.87;;;11.60;99.90;;;;;;5072165;28;20188;-62
2022/04/14 04:54:11;;;;;;;62.03;41.80;;;11.60;99.90;;;;;;5071701;28;20176;-63
2022/04/14 04:56:37;;;;;;;68.37;43.50;;;11.50;99.90;;;;;;5071965;28;20753;-62
2022/04/14 04:59:03;;;;;;;67.77;43.40;;;11.50;99.90;;;;;;5072163;28;20251;-63
2022/04/14 05:01:28;;;;;;;61.00;43.10;;;11.50;99.90;;;;;;5072644;28;20713;-62
2022/04/14 05:03:54;;;;;;;67.23;43.17;;;11.50;99.90;;;;;;5071939;28;20184;-62
2022/04/14 05:06:20;;;;;;;69.53;43.60;;;11.50;99.90;;;;;;5071580;28;20261;-63
2022/04/14 05:08:47;;;;;;;68.07;44.10;;;11.60;99.90;;;;;;5072524;28;20207;-63
2022/04/14 05:11:13;;;;;;;67.47;43.50;;;11.60;99.90;;;;;;5072055;28;20701;-62
2022/04/14 05:13:39;;;;;;;74.90;45.40;;;11.60;99.90;;;;;;5072447;28;20168;-64
2022/04/14 05:16:06;;;;;;;71.30;44.17;;;11.70;99.90;;;;;;5072049;28;20183;-62
2022/04/14 05:18:35;;;;;;;68.33;43.73;;;11.70;99.90;;;;;;5069732;28;20649;-63
2022/04/14 05:21:01;;;;;;;72.27;43.37;;;11.70;99.90;;;;;;5071550;28;20789;-64
2022/04/14 05:23:27;;;;;;;81.57;45.33;;;11.70;99.90;;;;;;5072253;28;20263;-64
2022/04/14 05:25:52;;;;;;;70.13;44.80;;;11.80;99.90;;;;;;5071586;28;20169;-63
2022/04/14 05:28:18;;;;;;;67.43;44.20;;;12.00;99.90;;;;;;5072142;28;20200;-63
2022/04/14 05:30:43;;;;;;;57.60;39.43;;;12.50;99.90;;;;;;5075548;28;20172;-63
2022/04/14 05:33:10;;;;;;;53.70;37.73;;;13.20;99.90;;;;;;5075423;28;20184;-63
2022/04/14 05:35:40;;;;;;;47.80;33.70;;;13.70;99.90;;;;;;5075289;28;20704;-63
2022/04/14 05:38:06;;;;;;;40.37;29.73;;;14.60;99.90;;;;;;5075314;28;20223;-63
2022/04/14 05:40:32;;;;;;;34.20;28.43;;;15.40;99.90;;;;;;5074862;28;20674;-63
2022/04/14 05:42:58;;;;;;;36.57;26.87;;;16.10;99.90;;;;;;5075318;28;20181;-63
2022/04/14 05:45:23;;;;;;;28.87;24.63;;;16.80;79.20;;;;;;5075251;28;20184;-63
2022/04/14 05:47:49;;;;;;;27.77;23.60;;;17.90;1.00;;;;;;5075173;28;20167;-63
2022/04/14 05:50:15;;;;;;;27.67;23.73;;;19.20;1.00;;;;;;5074328;28;20197;-64
2022/04/14 05:52:41;;;;;;;26.92;24.00;;;20.00;99.90;;;;;;5075381;28;20703;-64
2022/04/14 05:55:07;;;;;;;26.23;23.30;;;20.00;99.90;;;;;;5075211;28;20267;-63
2022/04/14 05:57:33;;;;;;;27.67;23.98;;;19.70;1.00;;;;;;5074485;28;20252;-64
2022/04/14 05:59:59;;;;;;;27.73;23.35;;;19.00;99.90;;;;;;5074732;28;20240;-63
2022/04/14 06:02:24;;;;;;;28.88;23.70;;;18.50;99.90;;;;;;5074205;28;20172;-64
2022/04/14 06:04:51;;;;;;;27.97;23.27;;;18.00;99.90;;;;;;5074580;28;20173;-64
2022/04/14 06:07:16;;;;;;;25.08;22.23;;;18.20;99.90;;;;;;5075062;28;20168;-63
2022/04/14 06:09:42;;;;;;;23.35;20.88;;;18.90;1.00;;;;;;5074770;28;20181;-63
2022/04/14 06:12:08;;;;;;;26.70;21.65;;;19.90;1.00;;;;;;5074734;28;20198;-63
2022/04/14 06:14:34;;;;;;;24.17;20.77;;;21.00;99.90;;;;;;5074819;28;20234;-64
2022/04/14 06:17:00;;;;;;;23.23;20.75;;;22.20;1.00;;;;;;5074401;28;20532;-65
2022/04/14 06:19:26;;;;;;;22.75;20.27;;;23.40;1.00;;;;;;5074349;28;20682;-65
2022/04/14 06:21:51;;;;;;;23.02;19.55;;;24.00;1.00;;;;;;5074102;28;20183;-64
2022/04/14 06:24:17;;;;;;;21.92;19.60;;;24.50;1.00;;;;;;5074899;28;20176;-65
2022/04/14 06:26:43;;;;;;;22.77;19.13;;;24.80;99.90;;;;;;5074206;28;20634;-65
2022/04/14 06:29:09;;;;;;;20.67;18.50;;;25.90;99.90;;;;;;5074435;28;20171;-65
2022/04/14 06:31:37;;;;;;;20.70;18.52;;;26.40;99.90;;;;;;5073931;28;20295;-65
2022/04/14 06:34:05;;;;;;;20.25;18.25;;;27.00;99.90;;;;;;5073744;28;20243;-65
2022/04/14 06:36:31;;;;;;;21.40;17.85;;;27.80;99.90;;;;;;5073916;28;20199;-66
2022/04/14 06:38:56;;;;;;;20.10;17.95;;;28.10;99.90;;;;;;5074501;28;20204;-65
2022/04/14 06:41:22;;;;;;;19.45;17.48;;;28.10;99.90;;;;;;5073002;28;20572;-65
2022/04/14 06:43:49;;;;;;;19.63;16.90;;;28.40;99.90;;;;;;5074370;28;20615;-65
2022/04/14 06:46:16;;;;;;;18.58;16.65;;;28.90;99.90;;;;;;5073748;28;20208;-64
2022/04/14 06:48:42;;;;;;;18.45;16.60;;;28.30;99.90;;;;;;5073615;28;20177;-65
2022/04/14 06:51:07;;;;;;;20.23;17.70;;;28.40;99.90;;;;;;5056970;28;20180;-65
2022/04/14 06:53:33;;;;;;;20.15;17.92;;;27.50;99.90;;;;;;5052903;28;20323;-64
2022/04/14 06:55:59;;;;;;;19.40;17.40;;;26.50;99.90;;;;;;5054405;28;20834;-65
2022/04/14 06:58:24;;;;;;;19.67;17.48;;;25.30;99.90;;;;;;5069300;28;20212;-63
2022/04/14 07:00:50;;;;;;;21.92;18.85;;;24.00;99.90;;;;;;5060824;28;20632;-62
2022/04/14 07:03:15;;;;;;;19.85;17.83;;;23.00;99.90;;;;;;5053366;28;20180;-64
2022/04/14 07:05:41;;;;;;;21.30;17.85;;;22.40;99.90;;;;;;5055421;28;20185;-64
2022/04/14 07:08:07;;;;;;;19.92;17.83;;;22.20;1.00;;;;;;5056547;28;20203;-64
2022/04/14 07:10:32;;;;;;;23.38;17.92;;;23.40;99.90;;;;;;5057054;28;20187;-65
2022/04/14 07:12:58;;;;;;;18.85;16.70;;;24.50;99.90;;;;;;5052666;28;20545;-65
2022/04/14 07:15:24;;;;;;;19.52;17.42;;;25.50;99.90;;;;;;5055889;28;20272;-66
2022/04/14 07:17:49;;;;;;;18.65;16.38;;;25.60;99.90;;;;;;5053880;28;20188;-64
2022/04/14 07:20:15;;;;;;;19.90;17.80;;;25.10;99.90;;;;;;5057919;28;20262;-64
2022/04/14 07:22:45;;;;;;;20.67;16.42;;;24.10;99.90;;;;;;5060032;28;20169;-64
2022/04/14 07:25:11;;;;;;;19.85;17.45;;;23.80;99.90;;;;;;5066900;28;20181;-64
2022/04/14 07:27:37;;;;;;;19.08;17.15;;;23.90;99.90;;;;;;5058213;28;20185;-64
2022/04/14 07:30:03;;;;;;;17.27;15.48;;;23.50;99.90;;;;;;5052535;28;20250;-63
2022/04/14 07:32:37;;;;;;;19.08;17.15;;;22.80;99.90;;;;;;5062314;28;20196;-66
2022/04/14 07:35:04;;;;;;;17.70;15.90;;;22.80;99.90;;;;;;5049275;28;20188;-65
2022/04/14 07:37:30;;;;;;;15.65;13.45;;;23.90;99.90;;;;;;5052438;28;20275;-65
2022/04/14 07:39:56;;;;;;;16.33;14.68;;;25.30;99.90;;;;;;5057439;28;20251;-65
2022/04/14 07:42:22;;;;;;;16.15;14.65;;;26.00;99.90;;;;;;5051954;28;20597;-66
2022/04/14 07:44:48;;;;;;;15.82;14.15;;;27.20;99.90;;;;;;5052702;28;20253;-65
2022/04/14 07:47:13;;;;;;;14.57;13.05;;;28.10;99.90;;;;;;5056040;28;20176;-66
2022/04/14 07:49:39;;;;;;;17.15;14.20;;;29.40;99.90;;;;;;5058088;28;20181;-67
2022/04/14 07:52:05;;;;;;;13.95;12.63;;;30.40;99.90;;;;;;5057945;28;20181;-67
2022/04/14 07:54:34;;;;;;;13.98;12.60;;;30.40;99.90;;;;;;5065985;28;20173;-67
2022/04/14 07:57:00;;;;;;;15.02;13.63;;;31.00;99.90;;;;;;5059605;28;20225;-68
2022/04/14 07:59:26;;;;;;;14.77;13.27;;;30.80;99.90;;;;;;5051693;28;20213;-67
2022/04/14 08:01:52;;;;;;;14.75;13.35;;;30.80;99.90;;;;;;5053286;28;20574;-67
2022/04/14 08:04:18;;;;;;;15.15;13.68;;;30.60;99.90;;;;;;5052280;28;20710;-67
2022/04/14 08:06:43;;;;;;;13.43;12.13;;;31.30;99.90;;;;;;5054209;28;20648;-68
2022/04/14 08:09:09;;;;;;;15.73;13.65;;;31.00;99.90;;;;;;5054778;28;20188;-68
2022/04/14 08:11:35;;;;;;;14.57;13.18;;;30.50;99.90;;;;;;5051318;28;20547;-66
2022/04/14 08:14:01;;;;;;;14.90;13.30;;;31.00;99.90;;;;;;5066673;28;20267;-67
2022/04/14 08:16:26;;;;;;;17.25;15.50;;;30.40;99.90;;;;;;5054026;28;20176;-67
2022/04/14 08:18:52;;;;;;;16.50;13.52;;;29.90;99.90;;;;;;5072769;28;20625;-67
2022/04/14 08:21:19;;;;;;;14.13;12.85;;;30.80;99.90;;;;;;5051699;28;20731;-67
2022/04/14 08:23:44;;;;;;;14.43;13.13;;;29.70;99.90;;;;;;5051861;28;20203;-69
2022/04/14 08:26:11;;;;;;;16.98;13.60;;;30.30;99.90;;;;;;5053383;28;20585;-68
2022/04/14 08:28:41;;;;;;;13.77;12.57;;;30.60;99.90;;;;;;5058563;28;20204;-69
2022/04/14 08:31:10;;;;;;;13.73;12.15;;;30.90;99.90;;;;;;5053413;28;20187;-68
2022/04/14 08:33:37;;;;;;;14.82;13.05;;;30.80;99.90;;;;;;5053042;28;20279;-71
2022/04/14 08:36:12;;;;;;;15.05;13.43;;;31.00;99.90;;;;;;5066154;28;20231;-70
2022/04/14 08:38:39;;;;;;;17.25;13.05;;;30.50;99.90;;;;;;5053612;28;20216;-70
2022/04/14 08:41:08;;;;;;;15.70;13.48;;;30.60;99.90;;;;;;5067209;28;20188;-69
2022/04/14 08:43:35;;;;;;;15.15;13.75;;;31.40;99.90;;;;;;5059717;28;20179;-70
2022/04/14 08:46:03;;;;;;;14.48;13.15;;;30.80;99.90;;;;;;5058857;28;20176;-70
2022/04/14 08:48:29;;;;;;;15.48;13.70;;;30.60;99.90;;;;;;5056050;28;20200;-66
2022/04/14 08:50:56;;;;;;;13.95;12.40;;;30.70;99.90;;;;;;5057917;28;20188;-67
2022/04/14 08:53:26;;;;;;;14.48;12.80;;;30.90;99.90;;;;;;5050019;28;20185;-68
2022/04/14 08:55:53;;;;;;;13.82;12.52;;;30.50;99.90;;;;;;5055789;28;20365;-69
2022/04/14 08:58:19;;;;;;;12.85;11.65;;;30.50;99.70;;;;;;5049328;28;20177;-67
2022/04/14 09:00:48;;;;;;;12.57;11.35;;;30.50;99.90;;;;;;5051304;28;20189;-68
2022/04/14 09:03:18;;;;;;;12.88;11.40;;;29.50;98.70;;;;;;5050401;28;20174;-66
2022/04/14 09:05:43;;;;;;;14.95;11.75;;;29.40;99.90;;;;;;5058763;28;20222;-67
2022/04/14 09:08:09;;;;;;;11.45;10.35;;;29.70;99.90;;;;;;5057719;28;20615;-68
2022/04/14 09:10:39;;;;;;;11.50;9.80;;;30.00;99.90;;;;;;5053867;28;20627;-67
2022/04/14 09:13:05;;;;;;;11.13;10.02;;;29.20;99.20;;;;;;5057405;28;20190;-68
2022/04/14 09:15:30;;;;;;;10.50;9.50;;;29.40;99.00;;;;;;5063284;28;20654;-65
2022/04/14 09:17:56;;;;;;;9.50;8.68;;;29.20;98.60;;;;;;5053871;28;20399;-66
2022/04/14 09:20:33;;;;;;;9.23;8.32;;;27.90;99.90;;;;;;5061389;28;20520;-67
2022/04/14 09:23:21;;;;;;;9.82;7.55;;;28.90;99.90;;;;;;5056537;28;20176;-66
2022/04/14 09:25:52;;;;;;;7.38;6.50;;;29.90;99.90;;;;;;5054597;28;20189;-67
2022/04/14 09:28:20;;;;;;;8.63;7.72;;;30.70;95.60;;;;;;5053573;28;20169;-67
2022/04/14 09:31:05;;;;;;;8.07;7.28;;;29.20;96.80;;;;;;5067970;28;20181;-68
2022/04/14 09:33:36;;;;;;;9.35;8.40;;;29.90;94.80;;;;;;5054438;28;20271;-66
2022/04/14 09:36:08;;;;;;;10.50;7.88;;;29.40;94.60;;;;;;5064269;28;20184;-66
2022/04/14 09:38:59;;;;;;;8.52;7.35;;;29.60;94.70;;;;;;5068085;28;20220;-67
2022/04/14 09:41:33;;;;;;;9.73;8.10;;;30.30;93.60;;;;;;5064892;28;20192;-68
2022/04/14 09:44:02;;;;;;;8.18;7.40;;;30.20;92.70;;;;;;5070688;28;20191;-66
2022/04/14 09:46:29;;;;;;;7.47;6.63;;;30.90;91.60;;;;;;5061379;28;20186;-68
2022/04/14 09:49:09;;;;;;;6.07;5.57;;;30.50;83.50;;;;;;5058192;28;20177;-69
2022/04/14 09:51:39;;;;;;;6.70;5.82;;;29.90;83.40;;;;;;5063840;28;20267;-68
2022/04/14 09:54:17;;;;;;;7.07;5.88;;;28.80;85.90;;;;;;5059142;28;20592;-69
2022/04/14 09:56:52;;;;;;;8.38;6.20;;;28.90;91.20;;;;;;5052046;28;20285;-68
2022/04/14 09:59:28;;;;;;;7.32;5.25;;;28.30;91.70;;;;;;5056822;28;20690;-68
2022/04/14 10:02:14;;;;;;;6.43;5.45;;;27.20;91.20;;;;;;5054591;28;20181;-67
2022/04/14 10:04:45;;;;;;;5.82;4.93;;;27.80;95.20;;;;;;5055836;28;20181;-67
2022/04/14 10:07:16;;;;;;;6.53;5.90;;;28.50;93.70;;;;;;5056761;28;20174;-67
2022/04/14 10:09:43;;;;;;;5.90;5.40;;;28.00;92.50;;;;;;5056344;28;20247;-66
2022/04/14 10:12:18;;;;;;;4.18;3.88;;;28.20;93.60;;;;;;5055603;28;20272;-66
2022/04/14 10:14:55;;;;;;;4.00;3.72;;;27.60;93.80;;;;;;5055973;28;20184;-66
2022/04/14 10:17:22;;;;;;;3.72;3.42;;;28.00;93.80;;;;;;5057814;28;20179;-70
2022/04/14 10:19:49;;;;;;;2.90;2.70;;;28.80;90.00;;;;;;5056155;28;20909;-67
2022/04/14 10:22:14;;;;;;;4.05;3.50;;;29.50;84.10;;;;;;5058925;28;20704;-69
2022/04/14 10:24:40;;;;;;;3.38;3.05;;;30.20;80.00;;;;;;5055441;28;20194;-67
2022/04/14 10:27:07;;;;;;;2.90;2.70;;;30.80;71.20;;;;;;5060417;28;20233;-68
2022/04/14 10:29:34;;;;;;;2.80;2.70;;;30.90;67.90;;;;;;5064354;28;20241;-67
2022/04/14 10:32:03;;;;;;;2.85;2.60;;;30.10;64.00;;;;;;5064201;28;20210;-69
2022/04/14 10:34:31;;;;;;;3.30;3.00;;;29.90;67.10;;;;;;5058773;28;20195;-70
2022/04/14 10:36:57;;;;;;;3.50;3.20;;;30.40;64.90;;;;;;5059405;28;20933;-68
2022/04/14 10:39:23;;;;;;;4.35;3.55;;;30.60;65.10;;;;;;5053217;28;20761;-68
2022/04/14 10:41:51;;;;;;;3.75;3.45;;;30.70;61.70;;;;;;5054908;28;20200;-68
2022/04/14 10:44:21;;;;;;;4.03;3.72;;;30.70;61.70;;;;;;5069849;28;20267;-68
2022/04/14 10:46:50;;;;;;;4.28;3.97;;;30.80;62.80;;;;;;5058444;28;20256;-67
2022/04/14 10:49:25;;;;;;;5.78;3.30;;;30.30;60.50;;;;;;5061082;28;20185;-67
2022/04/14 10:51:55;;;;;;;4.82;3.55;;;30.10;60.40;;;;;;5052892;28;20177;-68
2022/04/14 10:54:21;;;;;;;4.40;4.00;;;30.30;64.10;;;;;;5073091;28;20181;-67
2022/04/14 10:56:49;;;;;;;3.80;3.45;;;30.80;57.10;;;;;;5064546;28;20286;-68
2022/04/14 10:59:44;;;;;;;3.50;3.20;;;30.80;56.20;;;;;;5061732;28;20255;-68
2022/04/14 11:02:09;;;;;;;3.95;3.65;;;30.60;56.10;;;;;;5053539;28;20192;-68
2022/04/14 11:04:56;;;;;;;4.15;3.40;;;29.70;57.90;;;;;;5053212;28;20177;-68
2022/04/14 11:07:22;;;;;;;3.50;3.22;;;30.30;57.20;;;;;;5054171;28;20199;-67
2022/04/14 11:09:51;;;;;;;3.88;3.55;;;29.90;55.60;;;;;;5052318;28;20212;-66
2022/04/14 11:12:55;;;;;;;3.50;3.28;;;29.40;58.00;;;;;;5053367;28;20192;-68
2022/04/14 11:15:31;;;;;;;4.18;3.72;;;28.50;60.10;;;;;;5026416;28;20224;-66
2022/04/14 11:18:03;;;;;;;3.80;3.50;;;27.90;66.60;;;;;;5021605;28;20269;-67
2022/04/14 11:20:35;;;;;;;4.63;4.20;;;28.30;69.00;;;;;;5023018;28;20217;-67
2022/04/14 11:23:26;;;;;;;4.15;3.85;;;28.40;70.00;;;;;;5013835;28;20571;-67
2022/04/14 11:26:07;;;;;;;4.97;3.72;;;28.70;69.70;;;;;;5030339;28;20284;-66
2022/04/14 11:28:43;;;;;;;5.03;3.45;;;28.30;61.50;;;;;;5027198;28;20181;-65
2022/04/14 11:31:17;;;;;;;4.50;4.10;;;28.30;65.80;;;;;;5023527;28;20280;-67
2022/04/14 11:33:45;;;;;;;3.92;3.53;;;28.20;59.30;;;;;;5037269;28;20219;-67
2022/04/14 11:36:25;;;;;;;4.40;3.95;;;28.30;67.30;;;;;;5026793;28;20205;-67
2022/04/14 11:38:52;;;;;;;5.97;4.55;;;29.30;66.10;;;;;;5029934;28;20198;-67
2022/04/14 11:41:35;;;;;;;4.97;4.60;;;29.70;60.90;;;;;;5028829;28;20681;-67
2022/04/14 11:44:03;;;;;;;4.63;4.22;;;29.50;59.60;;;;;;5030406;28;20228;-66
2022/04/14 11:46:30;;;;;;;4.18;3.88;;;29.30;59.30;;;;;;5023026;28;20178;-66
2022/04/14 11:48:56;;;;;;;4.32;3.90;;;28.40;60.00;;;;;;5028648;28;20204;-65
2022/04/14 11:51:22;;;;;;;6.63;4.75;;;27.40;65.50;;;;;;5044232;28;20196;-66
2022/04/14 11:53:50;;;;;;;5.22;3.97;;;27.20;69.10;;;;;;5052148;28;20169;-67
2022/04/14 11:56:19;;;;;;;4.47;3.83;;;27.10;96.20;;;;;;5051657;28;20228;-66
2022/04/14 11:58:46;;;;;;;6.28;5.05;;;27.30;72.00;;;;;;5051328;28;20217;-66
2022/04/14 12:01:13;;;;;;;5.40;4.60;;;26.80;82.20;;;;;;5051978;28;20173;-67
2022/04/14 12:03:41;;;;;;;5.65;5.10;;;26.40;88.30;;;;;;5056790;28;20180;-66
2022/04/14 12:06:09;;;;;;;5.90;4.85;;;26.00;92.00;;;;;;5056640;28;20172;-69
2022/04/14 12:08:35;;;;;;;13.35;5.07;;;26.10;93.80;;;;;;5052177;28;20590;-65
2022/04/14 12:11:12;;;;;;;5.97;4.78;;;26.20;95.40;;;;;;5055103;28;20522;-64
2022/04/14 12:13:39;;;;;;;6.70;5.07;;;26.60;97.80;;;;;;5051187;28;20212;-64
2022/04/14 12:16:10;;;;;;;6.38;5.57;;;26.40;98.50;;;;;;5053889;28;20263;-63
2022/04/14 12:18:38;;;;;;;6.55;5.35;;;26.30;99.30;;;;;;5051768;28;20313;-64
2022/04/14 12:21:07;;;;;;;6.10;4.57;;;26.00;98.70;;;;;;5052167;28;20174;-64
2022/04/14 12:23:33;;;;;;;7.45;4.90;;;25.90;99.90;;;;;;5053475;28;20671;-64
2022/04/14 12:26:03;;;;;;;6.97;4.30;;;26.10;99.80;;;;;;5050483;28;20197;-64
2022/04/14 12:28:29;;;;;;;5.65;5.03;;;25.60;99.90;;;;;;5051213;28;20184;-63
2022/04/14 12:30:55;;;;;;;6.03;5.00;;;25.10;99.90;;;;;;5052155;28;20193;-64
2022/04/14 12:33:28;;;;;;;5.30;4.80;;;24.80;99.90;;;;;;5066206;28;20667;-64
2022/04/14 12:36:09;;;;;;;6.78;4.60;;;24.40;99.90;;;;;;5060991;28;20323;-64